Time;durP1;ratioP1;P1;durP2;ratioP2;P2;SDS_P1;SDS_P2;PMS_P1;PMS_P2;Temp;Humidity;BMP_temperature;BMP_pressure;BME280_temperature;BME280_humidity;BME280_pressure;Samples;Min_cycle;Max_cycle;Signal;HPM_P1;HPM_P2
2022/12/16 00:01:33;;;;;;;35.30;32.13;;;3.50;30.30;;;;;;5110819;28;20689;-47
2022/12/16 00:03:59;;;;;;;36.87;33.67;;;3.60;29.70;;;;;;5110061;28;20170;-44
2022/12/16 00:06:28;;;;;;;36.17;33.20;;;3.70;29.60;;;;;;5110751;28;20600;-44
2022/12/16 00:08:53;;;;;;;38.67;35.33;;;3.70;29.30;;;;;;5110452;28;20200;-48
2022/12/16 00:11:19;;;;;;;37.63;34.50;;;3.70;29.10;;;;;;5110065;28;20514;-44
2022/12/16 00:13:46;;;;;;;39.23;35.27;;;3.80;28.90;;;;;;5109591;28;20178;-43
2022/12/16 00:16:14;;;;;;;40.63;37.03;;;3.50;30.20;;;;;;5109911;28;20419;-45
2022/12/16 00:18:40;;;;;;;38.10;34.87;;;3.30;31.20;;;;;;5109728;28;20419;-48
2022/12/16 00:21:06;;;;;;;38.80;35.43;;;3.30;31.40;;;;;;5109332;28;20465;-44
2022/12/16 00:23:33;;;;;;;38.07;34.97;;;3.40;30.80;;;;;;5110230;28;20772;-45
2022/12/16 00:25:59;;;;;;;38.17;34.87;;;3.30;30.50;;;;;;5109491;28;20464;-47
2022/12/16 00:28:25;;;;;;;40.30;36.37;;;3.20;31.70;;;;;;5109137;28;20420;-46
2022/12/16 00:30:53;;;;;;;36.37;33.33;;;3.10;31.40;;;;;;5108931;28;20406;-44
2022/12/16 00:33:21;;;;;;;37.00;33.77;;;2.90;32.40;;;;;;5109861;28;20461;-45
2022/12/16 00:35:47;;;;;;;38.00;34.57;;;2.90;33.60;;;;;;5109951;28;20990;-43
2022/12/16 00:38:13;;;;;;;38.50;35.03;;;2.90;33.40;;;;;;5108671;28;20781;-44
2022/12/16 00:40:39;;;;;;;37.10;34.07;;;3.10;32.60;;;;;;5109686;28;20795;-47
2022/12/16 00:43:05;;;;;;;37.80;34.50;;;3.20;31.60;;;;;;5109810;28;20426;-42
2022/12/16 00:45:30;;;;;;;39.27;35.67;;;3.30;30.90;;;;;;5108695;28;20173;-45
2022/12/16 00:47:56;;;;;;;39.47;36.13;;;3.20;31.00;;;;;;5109338;28;20178;-46
2022/12/16 00:50:22;;;;;;;36.50;33.50;;;3.10;31.50;;;;;;5109221;28;20619;-48
2022/12/16 00:52:48;;;;;;;37.23;33.83;;;2.80;32.80;;;;;;5108595;28;20548;-44
2022/12/16 00:55:15;;;;;;;36.70;33.60;;;2.70;32.50;;;;;;5109426;28;20170;-44
2022/12/16 00:57:41;;;;;;;39.17;35.70;;;2.80;32.30;;;;;;5108942;28;20943;-51
2022/12/16 01:00:11;;;;;;;38.97;35.60;;;3.00;31.40;;;;;;5109476;28;20400;-44
2022/12/16 01:02:44;;;;;;;38.80;35.80;;;3.10;30.80;;;;;;5108982;28;20779;-43
2022/12/16 01:05:12;;;;;;;38.90;35.50;;;3.10;30.20;;;;;;5108740;28;20423;-44
2022/12/16 01:07:38;;;;;;;36.73;33.63;;;3.10;30.40;;;;;;5108657;28;20427;-47
2022/12/16 01:10:05;;;;;;;38.77;35.37;;;3.10;30.80;;;;;;5109339;28;20412;-45
2022/12/16 01:12:31;;;;;;;37.83;34.80;;;3.10;30.20;;;;;;5109072;28;20782;-44
2022/12/16 01:14:57;;;;;;;37.90;34.70;;;3.20;30.50;;;;;;5109615;28;20460;-44
2022/12/16 01:17:24;;;;;;;38.87;35.57;;;3.30;30.00;;;;;;5109264;28;20467;-45
2022/12/16 01:19:51;;;;;;;38.33;35.17;;;3.20;29.50;;;;;;5109104;28;20200;-43
2022/12/16 01:22:17;;;;;;;38.67;35.27;;;3.00;30.00;;;;;;5109880;28;20407;-43
2022/12/16 01:24:43;;;;;;;38.47;35.30;;;2.90;30.40;;;;;;5108378;28;20408;-42
2022/12/16 01:27:09;;;;;;;37.17;34.13;;;2.90;30.70;;;;;;5109282;28;20407;-43
2022/12/16 01:29:35;;;;;;;36.60;33.57;;;2.80;30.70;;;;;;5109885;28;20903;-45
2022/12/16 01:32:00;;;;;;;37.57;34.57;;;2.90;31.30;;;;;;5100634;28;20419;-43
2022/12/16 01:34:26;;;;;;;39.33;36.13;;;2.90;30.70;;;;;;5100620;28;20186;-47
2022/12/16 01:36:52;;;;;;;39.00;35.60;;;2.90;30.40;;;;;;5099865;27;20439;-47
2022/12/16 01:39:17;;;;;;;41.10;37.47;;;2.90;30.90;;;;;;5127712;27;20169;-43
2022/12/16 01:41:43;;;;;;;37.53;34.47;;;2.90;31.00;;;;;;5127373;27;20177;-43
2022/12/16 01:44:27;;;;;;;39.07;35.77;;;2.90;31.20;;;;;;5126438;27;20173;-44
2022/12/16 01:47:00;;;;;;;37.50;34.10;;;2.90;31.30;;;;;;5128194;27;20537;-43
2022/12/16 01:49:34;;;;;;;36.90;33.70;;;2.80;32.70;;;;;;5126907;27;20418;-44
2022/12/16 01:52:03;;;;;;;38.67;35.50;;;2.80;31.70;;;;;;5127471;27;20418;-46
2022/12/16 01:54:39;;;;;;;38.40;35.20;;;2.70;33.10;;;;;;5129743;27;20415;-43
2022/12/16 01:57:11;;;;;;;35.00;31.90;;;2.90;32.40;;;;;;5128686;27;20455;-43
2022/12/16 01:59:40;;;;;;;37.07;33.87;;;3.00;31.90;;;;;;5129370;27;20407;-43
2022/12/16 02:02:06;;;;;;;36.80;33.67;;;3.00;31.50;;;;;;5128981;27;20407;-43
2022/12/16 02:04:32;;;;;;;37.40;34.30;;;3.20;31.00;;;;;;5127842;27;20460;-44
2022/12/16 02:06:59;;;;;;;36.93;33.67;;;3.30;30.40;;;;;;5128548;27;20426;-44
2022/12/16 02:09:25;;;;;;;36.27;33.10;;;3.30;30.10;;;;;;5128299;27;20180;-44
2022/12/16 02:11:56;;;;;;;38.77;35.43;;;3.30;30.10;;;;;;5128011;27;20506;-48
2022/12/16 02:14:57;;;;;;;35.97;32.87;;;3.30;30.40;;;;;;5128187;27;20422;-46
2022/12/16 02:17:34;;;;;;;35.60;32.53;;;3.30;30.60;;;;;;5128204;27;20458;-45
2022/12/16 02:20:25;;;;;;;36.33;33.03;;;3.30;29.80;;;;;;5128123;27;20410;-43
2022/12/16 02:23:04;;;;;;;36.17;33.07;;;3.40;30.20;;;;;;5128265;27;20414;-43
2022/12/16 02:26:06;;;;;;;35.37;32.37;;;3.50;30.00;;;;;;5128386;27;20410;-43
2022/12/16 02:28:47;;;;;;;36.07;33.07;;;3.50;29.90;;;;;;5127993;27;20402;-43
2022/12/16 02:31:28;;;;;;;37.33;34.23;;;3.50;30.50;;;;;;5129359;27;20446;-42
2022/12/16 02:34:08;;;;;;;37.60;34.60;;;3.20;31.20;;;;;;5129020;27;20447;-43
2022/12/16 02:36:45;;;;;;;35.13;31.97;;;3.10;31.90;;;;;;5128931;27;20545;-46
2022/12/16 02:39:19;;;;;;;36.83;33.87;;;3.30;31.30;;;;;;5128053;27;20926;-43
2022/12/16 02:41:45;;;;;;;37.00;34.20;;;3.30;30.80;;;;;;5128513;27;20411;-42
2022/12/16 02:44:13;;;;;;;36.20;33.30;;;3.30;31.10;;;;;;5128484;27;20836;-43
2022/12/16 02:46:42;;;;;;;36.47;33.37;;;3.20;31.10;;;;;;5128192;27;20184;-42
2022/12/16 02:49:27;;;;;;;35.80;32.80;;;3.20;31.80;;;;;;5127999;27;20467;-42
2022/12/16 02:51:55;;;;;;;34.30;31.47;;;3.10;31.20;;;;;;5128259;28;20828;-42
2022/12/16 02:54:21;;;;;;;33.33;30.53;;;3.20;30.90;;;;;;5128110;28;20442;-41
2022/12/16 02:57:05;;;;;;;34.10;31.40;;;3.20;30.50;;;;;;5128082;28;20450;-44
2022/12/16 02:59:45;;;;;;;35.90;32.80;;;3.10;30.90;;;;;;5127401;28;20399;-45
2022/12/16 03:02:40;;;;;;;35.57;32.60;;;3.10;31.70;;;;;;5127741;28;20589;-43
2022/12/16 03:05:44;;;;;;;35.70;32.70;;;3.00;32.10;;;;;;5127270;28;20421;-44
2022/12/16 03:08:34;;;;;;;35.43;32.53;;;2.70;33.70;;;;;;5110869;28;20463;-47
2022/12/16 03:11:03;;;;;;;33.30;30.50;;;2.80;33.00;;;;;;5127420;28;20418;-43
2022/12/16 03:13:36;;;;;;;35.07;32.23;;;2.80;32.40;;;;;;5127667;28;20403;-42
2022/12/16 03:16:03;;;;;;;34.10;31.40;;;2.80;32.70;;;;;;5127838;28;20423;-43
2022/12/16 03:18:29;;;;;;;34.57;31.80;;;2.90;32.10;;;;;;5128011;28;20740;-44
2022/12/16 03:21:04;;;;;;;35.47;32.73;;;2.70;33.10;;;;;;5127312;28;20402;-43
2022/12/16 03:23:58;;;;;;;35.00;32.10;;;2.30;33.50;;;;;;5128344;28;20407;-44
2022/12/16 03:27:17;;;;;;;34.30;31.60;;;2.40;34.40;;;;;;5128493;28;20410;-45
2022/12/16 03:30:01;;;;;;;33.90;31.30;;;2.70;33.20;;;;;;5049148;28;20421;-46
2022/12/16 03:32:56;;;;;;;35.73;32.83;;;2.90;32.40;;;;;;5128112;28;20409;-48
2022/12/16 03:35:27;;;;;;;34.07;31.17;;;3.00;31.70;;;;;;5115665;28;20434;-46
2022/12/16 03:37:56;;;;;;;34.57;31.70;;;2.90;32.70;;;;;;5127734;28;20935;-47
2022/12/16 03:40:24;;;;;;;34.60;31.90;;;3.00;32.40;;;;;;5127938;28;20968;-48
2022/12/16 03:42:52;;;;;;;35.57;32.77;;;3.10;31.60;;;;;;5126663;28;20463;-42
2022/12/16 03:45:24;;;;;;;33.27;30.67;;;3.00;31.70;;;;;;5127618;28;20411;-48
2022/12/16 03:47:51;;;;;;;33.60;31.00;;;2.90;32.20;;;;;;5126906;28;20418;-42
2022/12/16 03:50:20;;;;;;;35.03;32.20;;;2.70;32.70;;;;;;5127109;28;20448;-43
2022/12/16 03:52:45;;;;;;;33.23;30.57;;;2.80;33.10;;;;;;5127657;28;20419;-46
2022/12/16 03:55:11;;;;;;;36.93;33.77;;;2.90;31.60;;;;;;5127777;28;20933;-42
2022/12/16 03:57:37;;;;;;;33.90;31.30;;;2.90;32.20;;;;;;5127364;28;20212;-43
2022/12/16 04:00:04;;;;;;;32.67;30.07;;;3.00;32.10;;;;;;5128111;28;20173;-45
2022/12/16 04:02:29;;;;;;;33.87;31.00;;;3.10;31.30;;;;;;5129859;27;20180;-45
2022/12/16 04:04:55;;;;;;;32.57;29.97;;;3.00;31.40;;;;;;5130374;27;20781;-46
2022/12/16 04:07:21;;;;;;;36.10;33.10;;;2.90;32.30;;;;;;5130527;27;20287;-49
2022/12/16 04:09:51;;;;;;;31.23;28.90;;;3.00;32.00;;;;;;5131066;27;20196;-45
2022/12/16 04:26:12;;;;;;;32.83;30.13;;;3.30;30.80;;;;;;5109201;27;20485;-46
2022/12/16 04:28:38;;;;;;;30.37;27.87;;;3.30;30.60;;;;;;5106575;28;20423;-43
2022/12/16 04:31:04;;;;;;;29.53;27.07;;;3.20;31.70;;;;;;5110751;27;20451;-50
